Time,TemperatureF,DewpointF,PressureIn,WindDirection,WindDirectionDegrees,WindSpeedMPH,WindSpeedGustMPH,Humidity,HourlyPrecipIn,Conditions,Clouds,dailyrainin,SolarRadiationWatts/m^2,SoftwareType,DateUTC
2013-05-10 00:00:00,38.0,33.0,-100.00,SSE,165,1.0,4.0,82,-99.99,,,0.00,0.000000,,2013-05-10 06:00:00,
2013-05-10 01:00:00,36.0,31.0,-100.00,SSE,166,1.0,5.0,83,-99.99,,,0.00,0.000000,,2013-05-10 07:00:00,
2013-05-10 01:52:00,36.0,-99.9,-100.00,North,-999,-999.0,-999.0,-999,-99.99,,,0.00,,,2013-05-10 07:52:00,
2013-05-10 02:00:00,38.0,-99.9,-100.00,North,-999,-999.0,-999.0,-999,-99.99,,,0.00,,,2013-05-10 08:00:00,
2013-05-10 03:00:00,38.0,32.0,-100.00,East,92,0.0,2.0,78,-99.99,,,0.00,0.000000,,2013-05-10 09:00:00,
2013-05-10 04:00:00,35.0,31.0,-100.00,West,276,0.0,2.0,83,-99.99,,,0.00,0.000000,,2013-05-10 10:00:00,
2013-05-10 05:00:00,35.0,32.0,-100.00,South,183,0.0,1.0,88,-99.99,,,0.00,0.000000,,2013-05-10 11:00:00,
2013-05-10 06:00:00,34.0,31.0,-100.00,SSE,163,0.0,1.0,89,-99.99,,,0.01,0.000000,,2013-05-10 12:00:00,
2013-05-10 07:00:00,34.0,-99.9,-100.00,North,-999,-999.0,-999.0,-999,-99.99,,,0.01,,,2013-05-10 13:00:00,
2013-05-10 09:00:00,-999.0,-99.9,-100.00,NNE,22,0.0,3.0,67,-99.99,,,-99.99,317.500000,,2013-05-10 15:00:00,
2013-05-10 10:00:00,52.0,35.0,-100.00,NNE,29,1.0,3.0,52,-99.99,,,0.00,572.000000,,2013-05-10 16:00:00,
2013-05-10 12:00:00,-999.0,-99.9,-100.00,NE,40,1.0,5.0,62,-99.99,,,-99.99,261.000000,,2013-05-10 18:00:00,
2013-05-10 15:00:00,46.0,-99.9,-100.00,North,-999,-999.0,-999.0,-999,-99.99,,,0.00,,,2013-05-10 21:00:00,
2013-05-10 15:53:00,46.0,-99.9,-100.00,North,-999,-999.0,-999.0,-999,-99.99,,,0.00,,,2013-05-10 21:53:00,
2013-05-10 16:00:00,47.0,36.0,-100.00,NNE,29,2.0,9.0,65,-99.99,,,0.01,552.799988,,2013-05-10 22:00:00,
2013-05-10 17:00:00,47.0,34.0,-100.00,North,0,2.0,9.0,60,-99.99,,,0.00,158.100006,,2013-05-10 23:00:00,
2013-05-10 18:00:00,48.0,32.0,-100.00,NE,48,1.0,6.0,55,-99.99,,,-99.99,85.500000,,2013-05-11 00:00:00,
2013-05-10 19:00:00,45.0,29.0,-100.00,NNE,21,1.0,5.0,54,-99.99,,,0.00,39.400002,,2013-05-11 01:00:00,
2013-05-10 20:00:00,42.0,32.0,-100.00,ESE,114,1.0,5.0,68,-99.99,,,0.00,6.400000,,2013-05-11 02:00:00,
2013-05-10 22:00:00,40.0,33.0,-100.00,ENE,78,1.0,4.0,77,-99.99,,,0.00,0.000000,,2013-05-11 04:00:00,
2013-05-10 23:00:00,38.0,33.0,-100.00,NNE,12,0.0,2.0,81,-99.99,,,0.00,0.000000,,2013-05-11 05:00:00,